Terminal Aerodrome Forecast
Issued by NWS Cleveland, OH

Home | Current Version | Previous Version | Text Only | Print | Product List | Glossary On
Versions: 1 2 3 4 5 6 7 8 9 10 11 12 13 14 15 16 17 18
000
FTUS41 KCLE 271123
TAFCAK
TAF
KCAK 271123Z 2712/2812 VRB04KT P6SM BKN150
     FM272000 24005KT P6SM VCTS BKN030CB BKN090
     FM280000 24005KT P6SM SCT030 BKN080
     FM280600 VRB03KT P6SM SCT025 BKN050
     FM281000 06004KT P6SM BKN015=

USA.gov is the U.S. government's official web portal to all federal, state and local government web resources and services.